createdAt,value
2023-05-05T00:02:14.805Z,99.90
2023-05-05T00:05:03.227Z,99.90
2023-05-05T00:07:50.775Z,99.90
2023-05-05T00:10:38.305Z,99.90
2023-05-05T00:13:26.073Z,99.90
2023-05-05T00:16:13.460Z,99.90
2023-05-05T00:19:01.354Z,99.90
2023-05-05T00:21:48.875Z,99.90
2023-05-05T00:24:36.514Z,99.90
2023-05-05T00:27:23.933Z,99.90
2023-05-05T00:30:11.753Z,99.90
2023-05-05T00:32:59.271Z,99.90
2023-05-05T00:35:46.828Z,99.90
2023-05-05T00:38:34.468Z,99.90
2023-05-05T00:41:21.957Z,99.90
2023-05-05T00:44:09.548Z,99.90
2023-05-05T00:46:57.130Z,99.90
2023-05-05T00:49:44.674Z,99.90
2023-05-05T00:52:32.283Z,99.90
2023-05-05T00:55:20.863Z,99.90
2023-05-05T00:58:10.135Z,99.90
2023-05-05T01:00:57.727Z,99.90
2023-05-05T01:03:45.454Z,99.90
2023-05-05T01:07:12.955Z,99.90
2023-05-05T01:10:41.090Z,99.90
2023-05-05T01:13:59.405Z,99.90
2023-05-05T01:17:00.850Z,99.90
2023-05-05T01:20:33.362Z,99.90
2023-05-05T01:24:17.244Z,99.90
2023-05-05T01:27:52.718Z,99.90
2023-05-05T01:30:58.778Z,99.90
2023-05-05T01:33:58.439Z,99.90
2023-05-05T01:37:13.839Z,99.90
2023-05-05T01:40:08.868Z,99.90
2023-05-05T01:43:00.754Z,99.90
2023-05-05T01:45:51.458Z,99.90
2023-05-05T01:48:42.239Z,99.90
2023-05-05T01:51:30.750Z,99.90
2023-05-05T01:54:20.386Z,99.90
2023-05-05T01:57:11.417Z,99.90
2023-05-05T02:00:06.267Z,99.90
2023-05-05T02:02:57.686Z,99.90
2023-05-05T02:05:48.727Z,99.90
2023-05-05T02:08:39.702Z,99.90
2023-05-05T02:11:29.752Z,99.90
2023-05-05T02:14:20.676Z,99.90
2023-05-05T02:17:09.821Z,99.90
2023-05-05T02:20:01.136Z,99.90
2023-05-05T02:22:49.194Z,99.90
2023-05-05T02:25:43.555Z,99.90
2023-05-05T02:28:46.666Z,99.90
2023-05-05T02:31:44.355Z,99.90
2023-05-05T02:34:38.596Z,99.90
2023-05-05T02:37:31.539Z,99.90
2023-05-05T02:40:26.622Z,99.90
2023-05-05T02:43:19.707Z,99.90
2023-05-05T02:46:07.969Z,99.90
2023-05-05T02:48:55.701Z,99.90
2023-05-05T02:51:43.133Z,99.90
2023-05-05T02:54:32.848Z,99.90
2023-05-05T02:57:37.718Z,99.90
2023-05-05T03:01:07.398Z,99.90
2023-05-05T03:04:07.437Z,99.90
2023-05-05T03:07:01.681Z,99.90
2023-05-05T03:10:12.229Z,99.90
2023-05-05T03:13:03.218Z,99.90
2023-05-05T03:15:56.950Z,99.90
2023-05-05T03:18:48.138Z,99.90
2023-05-05T03:21:36.879Z,99.90
2023-05-05T03:24:24.329Z,99.90
2023-05-05T03:27:11.758Z,99.90
2023-05-05T03:29:59.426Z,99.90
2023-05-05T03:32:47.028Z,99.90
2023-05-05T03:35:34.555Z,99.90
2023-05-05T03:38:22.010Z,99.90
2023-05-05T03:41:09.480Z,99.90
2023-05-05T03:43:57.030Z,99.90
2023-05-05T03:46:44.576Z,99.90
2023-05-05T03:49:32.116Z,99.90
2023-05-05T03:52:19.557Z,99.90
2023-05-05T03:55:07.596Z,99.90
2023-05-05T03:57:57.709Z,99.90
2023-05-05T04:00:45.224Z,99.90
2023-05-05T04:03:32.950Z,99.90
2023-05-05T04:06:20.912Z,99.90
2023-05-05T04:09:08.423Z,99.90
2023-05-05T04:11:56.154Z,99.90
2023-05-05T04:14:43.640Z,99.90
2023-05-05T04:17:31.227Z,99.90
2023-05-05T04:20:18.970Z,99.90
2023-05-05T04:23:06.487Z,99.90
2023-05-05T04:25:54.075Z,99.90
2023-05-05T04:28:42.082Z,99.90
2023-05-05T04:31:29.639Z,99.90
2023-05-05T04:34:17.182Z,99.90
2023-05-05T04:37:04.616Z,99.90
2023-05-05T04:39:52.570Z,99.90
2023-05-05T04:42:40.138Z,99.90
2023-05-05T04:45:27.576Z,99.90
2023-05-05T04:48:15.116Z,99.90
2023-05-05T04:51:08.952Z,99.90
2023-05-05T04:53:56.441Z,99.90
2023-05-05T04:56:44.011Z,99.90
2023-05-05T04:59:31.573Z,99.90
2023-05-05T05:02:19.130Z,99.90
2023-05-05T05:05:07.792Z,99.90
2023-05-05T05:07:55.415Z,99.90
2023-05-05T05:10:43.802Z,99.90
2023-05-05T05:13:31.604Z,99.90
2023-05-05T05:16:19.297Z,99.90
2023-05-05T05:19:06.821Z,99.90
2023-05-05T05:21:54.259Z,99.90
2023-05-05T05:24:41.708Z,99.90
2023-05-05T05:27:29.248Z,99.90
2023-05-05T05:30:16.690Z,99.90
2023-05-05T05:33:04.304Z,99.90
2023-05-05T05:35:51.848Z,99.90
2023-05-05T05:38:39.337Z,99.90
2023-05-05T05:41:26.856Z,99.90
2023-05-05T05:44:14.292Z,99.90
2023-05-05T05:47:01.811Z,99.90
2023-05-05T05:49:49.276Z,99.90
2023-05-05T05:52:36.962Z,99.90
2023-05-05T05:55:24.511Z,99.90
2023-05-05T05:58:11.966Z,99.90
2023-05-05T06:00:59.991Z,99.90
2023-05-05T06:03:47.565Z,99.90
2023-05-05T06:06:35.240Z,99.90
2023-05-05T06:09:22.762Z,99.90
2023-05-05T06:12:10.395Z,99.90
2023-05-05T06:14:57.850Z,99.90
2023-05-05T06:17:45.761Z,99.90
2023-05-05T06:20:35.956Z,99.90
2023-05-05T06:23:23.435Z,99.90
2023-05-05T06:26:10.884Z,99.90
2023-05-05T06:28:58.418Z,99.90
2023-05-05T06:31:46.529Z,99.90
2023-05-05T06:34:34.672Z,99.90
2023-05-05T06:37:22.126Z,99.90
2023-05-05T06:40:10.883Z,99.90
2023-05-05T06:42:58.439Z,99.90
2023-05-05T06:45:46.478Z,99.90
2023-05-05T06:48:33.913Z,99.90
2023-05-05T06:51:22.847Z,99.90
2023-05-05T06:54:10.321Z,99.90
2023-05-05T06:56:59.531Z,99.90
2023-05-05T06:59:47.258Z,99.90
2023-05-05T07:02:34.913Z,99.90
2023-05-05T07:05:22.638Z,99.90
2023-05-05T07:08:11.439Z,99.90
2023-05-05T07:11:01.086Z,99.90
2023-05-05T07:13:49.398Z,99.90
2023-05-05T07:16:37.425Z,99.90
2023-05-05T07:19:25.164Z,99.90
2023-05-05T07:22:12.660Z,99.90
2023-05-05T07:25:00.215Z,99.90
2023-05-05T07:27:47.772Z,99.90
2023-05-05T07:30:35.417Z,99.90
2023-05-05T07:33:22.906Z,99.90
2023-05-05T07:36:10.543Z,99.90
2023-05-05T07:38:58.020Z,99.90
2023-05-05T07:41:45.666Z,99.90
2023-05-05T07:44:33.213Z,99.90
2023-05-05T07:47:20.984Z,99.90
2023-05-05T07:50:09.162Z,99.90
2023-05-05T07:53:06.136Z,99.90
2023-05-05T07:56:01.228Z,99.90
2023-05-05T07:58:48.814Z,99.90
2023-05-05T08:01:36.328Z,99.90
2023-05-05T08:04:24.142Z,99.90
2023-05-05T08:07:11.723Z,99.90
2023-05-05T08:09:59.178Z,99.90
2023-05-05T08:12:46.666Z,99.90
2023-05-05T08:15:34.201Z,99.90
2023-05-05T08:18:22.080Z,99.90
2023-05-05T08:21:11.685Z,99.90
2023-05-05T08:23:59.115Z,99.90
2023-05-05T08:26:46.667Z,99.90
2023-05-05T08:29:34.403Z,99.90
2023-05-05T08:32:21.919Z,99.90
2023-05-05T08:35:10.171Z,99.90
2023-05-05T08:37:59.207Z,99.90
2023-05-05T08:40:47.380Z,99.90
2023-05-05T08:43:36.585Z,99.90
2023-05-05T08:46:28.170Z,99.90
2023-05-05T08:49:18.814Z,99.90
2023-05-05T08:52:12.982Z,99.90
2023-05-05T08:55:29.374Z,99.90
2023-05-05T08:58:19.557Z,99.90
2023-05-05T09:01:08.313Z,99.90
2023-05-05T09:03:58.980Z,99.90
2023-05-05T09:06:46.550Z,99.90
2023-05-05T09:09:34.478Z,99.90
2023-05-05T09:12:23.193Z,99.90
2023-05-05T09:15:16.605Z,99.90
2023-05-05T09:18:09.527Z,99.90
2023-05-05T09:20:59.399Z,99.90
2023-05-05T09:24:09.546Z,99.90
2023-05-05T09:26:59.082Z,99.90
2023-05-05T09:29:49.958Z,99.90
2023-05-05T09:32:49.184Z,99.90
2023-05-05T09:35:50.084Z,99.90
2023-05-05T09:38:37.588Z,99.90
2023-05-05T09:41:45.427Z,99.90
2023-05-05T09:44:38.211Z,99.90
2023-05-05T09:47:36.016Z,99.90
2023-05-05T09:50:23.760Z,99.90
2023-05-05T09:53:11.967Z,99.90
2023-05-05T09:56:01.124Z,99.90
2023-05-05T09:58:48.634Z,99.90
2023-05-05T10:01:36.520Z,99.90
2023-05-05T10:04:30.057Z,99.90
2023-05-05T10:07:24.908Z,99.90
2023-05-05T10:10:18.385Z,99.90
2023-05-05T10:13:06.180Z,99.90
2023-05-05T10:15:56.640Z,99.90
2023-05-05T10:18:47.687Z,99.90
2023-05-05T10:21:41.964Z,99.90
2023-05-05T10:25:00.168Z,99.90
2023-05-05T10:27:54.902Z,99.90
2023-05-05T10:30:49.278Z,99.90
2023-05-05T10:33:59.434Z,99.90
2023-05-05T10:36:49.114Z,99.90
2023-05-05T10:39:37.936Z,99.90
2023-05-05T10:42:25.725Z,99.90
2023-05-05T10:45:13.295Z,99.90
2023-05-05T10:48:08.985Z,99.90
2023-05-05T10:51:31.009Z,99.90
2023-05-05T10:54:52.502Z,99.90
2023-05-05T10:57:44.535Z,99.90
2023-05-05T11:00:41.240Z,99.90
2023-05-05T11:03:29.353Z,99.90
2023-05-05T11:06:16.955Z,99.90
2023-05-05T11:09:28.699Z,99.90
2023-05-05T11:12:16.228Z,99.90
2023-05-05T11:15:29.851Z,99.90
2023-05-05T11:18:38.549Z,99.90
2023-05-05T11:21:27.761Z,99.90
2023-05-05T11:24:31.603Z,99.90
2023-05-05T11:27:19.230Z,99.90
2023-05-05T11:30:11.273Z,99.90
2023-05-05T11:33:24.800Z,99.90
2023-05-05T11:36:20.477Z,99.90
2023-05-05T11:40:16.689Z,99.90
2023-05-05T11:43:07.545Z,99.90
2023-05-05T11:46:12.202Z,99.90
2023-05-05T11:48:59.722Z,99.90
2023-05-05T11:52:15.316Z,99.90
2023-05-05T11:55:03.859Z,99.90
2023-05-05T11:57:52.461Z,99.90
2023-05-05T12:00:40.112Z,99.90
2023-05-05T12:03:27.823Z,99.90
2023-05-05T12:06:15.587Z,99.90
2023-05-05T12:09:04.376Z,99.90
2023-05-05T12:11:58.160Z,99.90
2023-05-05T12:14:52.782Z,99.90
2023-05-05T12:17:45.054Z,99.90
2023-05-05T12:20:36.696Z,99.90
2023-05-05T12:23:27.376Z,99.90
2023-05-05T12:26:32.157Z,99.90
2023-05-05T12:29:30.059Z,99.60
2023-05-05T12:32:30.278Z,98.70
2023-05-05T12:35:18.095Z,99.80
2023-05-05T12:38:05.975Z,99.10
2023-05-05T12:40:55.860Z,99.20
2023-05-05T12:43:43.365Z,98.70
2023-05-05T12:46:32.087Z,98.70
2023-05-05T12:49:19.661Z,99.70
2023-05-05T12:52:08.091Z,98.30
2023-05-05T12:55:00.606Z,98.30
2023-05-05T12:58:06.626Z,98.00
2023-05-05T13:01:14.307Z,99.30
2023-05-05T13:04:14.092Z,98.00
2023-05-05T13:07:14.302Z,97.10
2023-05-05T13:10:11.347Z,97.50
2023-05-05T13:12:59.023Z,97.30
2023-05-05T13:15:46.580Z,99.10
2023-05-05T13:18:53.692Z,97.80
2023-05-05T13:21:41.906Z,98.80
2023-05-05T13:24:46.452Z,97.70
2023-05-05T13:27:37.894Z,97.40
2023-05-05T13:30:25.604Z,97.90
2023-05-05T13:33:13.125Z,98.30
2023-05-05T13:36:04.355Z,96.50
2023-05-05T13:38:51.817Z,96.20
2023-05-05T13:41:39.419Z,98.00
2023-05-05T13:44:26.853Z,97.80
2023-05-05T13:47:14.579Z,97.10
2023-05-05T13:50:02.136Z,95.90
2023-05-05T13:52:49.650Z,96.50
2023-05-05T13:55:37.226Z,97.70
2023-05-05T13:58:24.870Z,97.80
2023-05-05T14:01:12.373Z,95.80
2023-05-05T14:04:00.929Z,95.70
2023-05-05T14:06:49.605Z,96.60
2023-05-05T14:09:37.095Z,96.30
2023-05-05T14:12:24.769Z,98.20
2023-05-05T14:15:12.486Z,96.00
2023-05-05T14:18:00.178Z,97.00
2023-05-05T14:20:47.725Z,98.90
2023-05-05T14:23:35.277Z,98.10
2023-05-05T14:26:22.740Z,98.60
2023-05-05T14:29:10.213Z,97.80
2023-05-05T14:31:57.903Z,96.10
2023-05-05T14:34:45.644Z,96.40
2023-05-05T14:37:34.612Z,97.90
2023-05-05T14:40:22.167Z,96.40
2023-05-05T14:43:09.625Z,95.80
2023-05-05T14:45:59.160Z,97.20
2023-05-05T14:48:47.377Z,97.00
2023-05-05T14:51:34.796Z,96.60
2023-05-05T14:54:28.371Z,97.40
2023-05-05T14:57:16.526Z,97.70
2023-05-05T15:00:04.908Z,96.20
2023-05-05T15:02:52.584Z,97.00
2023-05-05T15:05:40.302Z,97.00
2023-05-05T15:08:27.862Z,97.10
2023-05-05T15:11:15.451Z,97.40
2023-05-05T15:14:02.981Z,97.60
2023-05-05T15:16:50.473Z,97.60
2023-05-05T15:19:37.914Z,97.00
2023-05-05T15:22:25.434Z,95.80
2023-05-05T15:25:15.012Z,96.50
2023-05-05T15:28:02.676Z,95.70
2023-05-05T15:30:50.823Z,96.70
2023-05-05T15:33:38.887Z,96.00
2023-05-05T15:36:26.789Z,95.80
2023-05-05T15:39:14.304Z,96.00
2023-05-05T15:42:03.921Z,95.90
2023-05-05T15:44:52.351Z,96.70
2023-05-05T15:47:39.852Z,97.40
2023-05-05T15:50:27.398Z,96.90
2023-05-05T15:53:14.891Z,95.70
2023-05-05T15:56:02.793Z,96.90
2023-05-05T15:58:50.270Z,97.00
2023-05-05T16:01:37.965Z,96.80
2023-05-05T16:04:25.554Z,97.80
2023-05-05T16:07:13.146Z,97.60
2023-05-05T16:10:00.947Z,97.60
2023-05-05T16:12:48.728Z,97.00
2023-05-05T16:15:36.334Z,96.50
2023-05-05T16:18:23.858Z,97.20
2023-05-05T16:21:11.517Z,97.00
2023-05-05T16:23:59.231Z,97.30
2023-05-05T16:26:46.762Z,97.10
2023-05-05T16:29:34.213Z,97.40
2023-05-05T16:32:21.647Z,97.20
2023-05-05T16:35:09.562Z,97.10
2023-05-05T16:37:57.502Z,97.10
2023-05-05T16:40:45.011Z,97.60
2023-05-05T16:43:33.164Z,97.20
2023-05-05T16:46:20.669Z,97.60
2023-05-05T16:49:08.596Z,97.80
2023-05-05T16:51:57.210Z,98.40
2023-05-05T16:54:44.701Z,97.90
2023-05-05T16:57:32.400Z,97.90
2023-05-05T17:00:20.193Z,98.30
2023-05-05T17:03:07.685Z,97.80
2023-05-05T17:05:55.489Z,97.90
2023-05-05T17:08:43.134Z,98.40
2023-05-05T17:11:30.767Z,98.40
2023-05-05T17:14:18.632Z,98.60
2023-05-05T17:17:07.255Z,99.00
2023-05-05T17:19:54.760Z,99.70
2023-05-05T17:22:42.157Z,99.40
2023-05-05T17:25:29.852Z,99.90
2023-05-05T17:28:17.705Z,99.30
2023-05-05T17:31:05.873Z,99.50
2023-05-05T17:33:53.336Z,99.10
2023-05-05T17:36:41.111Z,99.50
2023-05-05T17:39:29.054Z,99.70
2023-05-05T17:42:18.851Z,99.20
2023-05-05T17:45:07.906Z,99.40
2023-05-05T17:47:55.877Z,99.20
2023-05-05T17:50:43.629Z,99.20
2023-05-05T17:53:31.220Z,99.00
2023-05-05T17:56:18.780Z,99.30
2023-05-05T17:59:06.407Z,99.10
2023-05-05T18:01:53.906Z,99.30
2023-05-05T18:04:41.370Z,99.30
2023-05-05T18:07:29.106Z,99.40
2023-05-05T18:10:16.786Z,99.40
2023-05-05T18:13:04.246Z,99.70
2023-05-05T18:15:51.767Z,99.60
2023-05-05T18:18:41.253Z,99.70
2023-05-05T18:21:30.007Z,99.80
2023-05-05T18:24:20.300Z,99.70
2023-05-05T18:27:08.298Z,99.70
2023-05-05T18:29:55.781Z,99.50
2023-05-05T18:32:43.378Z,99.60
2023-05-05T18:35:30.932Z,99.70
2023-05-05T18:38:18.427Z,99.20
2023-05-05T18:41:05.874Z,99.30
2023-05-05T18:43:53.431Z,99.60
2023-05-05T18:46:41.038Z,99.60
2023-05-05T18:49:31.151Z,99.80
2023-05-05T18:52:19.060Z,99.70
2023-05-05T18:55:07.627Z,99.90
2023-05-05T18:57:55.274Z,99.90
2023-05-05T19:00:42.852Z,99.90
2023-05-05T19:03:30.452Z,99.90
2023-05-05T19:06:18.417Z,99.90
2023-05-05T19:09:06.164Z,99.90
2023-05-05T19:11:53.861Z,99.90
2023-05-05T19:14:41.588Z,99.90
2023-05-05T19:17:29.054Z,99.90
2023-05-05T19:20:16.510Z,99.90
2023-05-05T19:23:05.336Z,99.90
2023-05-05T19:25:53.108Z,99.90
2023-05-05T19:28:40.586Z,99.90
2023-05-05T19:31:28.281Z,99.90
2023-05-05T19:34:15.855Z,99.90
2023-05-05T19:37:03.406Z,99.90
2023-05-05T19:39:51.671Z,99.90
2023-05-05T19:42:39.352Z,99.90
2023-05-05T19:45:26.822Z,99.90
2023-05-05T19:48:14.293Z,99.90
2023-05-05T19:51:01.685Z,99.90
2023-05-05T19:53:49.303Z,99.90
2023-05-05T19:56:37.008Z,99.90
2023-05-05T19:59:24.757Z,99.90
2023-05-05T20:02:12.284Z,99.90
2023-05-05T20:05:00.004Z,99.90
2023-05-05T20:07:47.598Z,99.90
2023-05-05T20:10:35.243Z,99.90
2023-05-05T20:13:23.144Z,99.90
2023-05-05T20:16:11.209Z,99.90
2023-05-05T20:18:59.141Z,99.90
2023-05-05T20:21:46.641Z,99.90
2023-05-05T20:24:34.117Z,99.90
2023-05-05T20:27:21.804Z,99.90
2023-05-05T20:30:13.446Z,99.90
2023-05-05T20:33:01.044Z,99.90
2023-05-05T20:35:50.971Z,99.90
2023-05-05T20:38:38.522Z,99.90
2023-05-05T20:41:26.391Z,99.90
2023-05-05T20:44:13.920Z,99.90
2023-05-05T20:47:01.642Z,99.90
2023-05-05T20:49:49.344Z,99.90
2023-05-05T20:52:36.810Z,99.90
2023-05-05T20:55:25.744Z,99.90
2023-05-05T20:58:13.266Z,99.90
2023-05-05T21:01:00.749Z,99.90
2023-05-05T21:03:48.205Z,99.90
2023-05-05T21:06:35.757Z,99.90
2023-05-05T21:09:24.162Z,99.90
2023-05-05T21:12:11.677Z,99.90
2023-05-05T21:14:59.682Z,99.90
2023-05-05T21:17:47.917Z,99.90
2023-05-05T21:20:35.895Z,99.90
2023-05-05T21:23:23.332Z,99.90
2023-05-05T21:26:10.939Z,99.90
2023-05-05T21:28:58.429Z,99.90
2023-05-05T21:31:46.010Z,99.90
2023-05-05T21:34:33.523Z,99.90
2023-05-05T21:37:21.213Z,99.90
2023-05-05T21:40:13.779Z,99.90
2023-05-05T21:43:01.533Z,99.90
2023-05-05T21:45:57.506Z,99.90
2023-05-05T21:48:47.438Z,99.90
2023-05-05T21:51:35.094Z,99.90
2023-05-05T21:54:22.656Z,99.90
2023-05-05T21:57:10.130Z,99.90
2023-05-05T21:59:57.620Z,99.90
2023-05-05T22:02:45.958Z,99.90
2023-05-05T22:05:33.671Z,99.90
2023-05-05T22:08:21.174Z,99.90
2023-05-05T22:11:08.672Z,99.90
2023-05-05T22:13:56.619Z,99.90
2023-05-05T22:16:44.270Z,99.90
2023-05-05T22:19:32.121Z,99.90
2023-05-05T22:22:19.547Z,99.90
2023-05-05T22:25:07.901Z,99.90
2023-05-05T22:27:55.894Z,99.90
2023-05-05T22:30:43.644Z,99.90
2023-05-05T22:33:31.413Z,99.90
2023-05-05T22:36:18.907Z,99.90
2023-05-05T22:39:06.624Z,99.90
2023-05-05T22:41:54.148Z,99.90
2023-05-05T22:44:41.585Z,99.90
2023-05-05T22:47:29.173Z,99.90
2023-05-05T22:50:16.697Z,99.90
2023-05-05T22:53:04.362Z,99.90
2023-05-05T22:55:52.495Z,99.90
2023-05-05T22:58:40.103Z,99.90
2023-05-05T23:01:27.635Z,99.90
2023-05-05T23:04:15.251Z,99.90
2023-05-05T23:07:02.874Z,99.90
2023-05-05T23:09:50.421Z,99.90
2023-05-05T23:12:38.023Z,99.90
2023-05-05T23:15:26.963Z,99.90
2023-05-05T23:18:14.408Z,99.90
2023-05-05T23:21:02.062Z,99.90
2023-05-05T23:23:49.699Z,99.90
2023-05-05T23:26:37.296Z,99.90
2023-05-05T23:29:24.851Z,99.90
2023-05-05T23:32:12.258Z,99.90
2023-05-05T23:34:59.738Z,99.90
2023-05-05T23:37:47.201Z,99.90
2023-05-05T23:40:34.830Z,99.90
2023-05-05T23:43:22.288Z,99.90
2023-05-05T23:46:09.892Z,99.90
2023-05-05T23:48:57.466Z,99.90
2023-05-05T23:51:44.985Z,99.90
2023-05-05T23:54:32.522Z,99.90
2023-05-05T23:57:22.530Z,99.90
